sensor_id;sensor_type;location;lat;lon;timestamp;P1;durP1;ratioP1;P2;durP2;ratioP2
27618;SDS011;15039;50.830;4.730;2022-09-24T00:01:31;12.20;;;10.90;;
27618;SDS011;15039;50.830;4.730;2022-09-24T00:04:00;11.85;;;10.63;;
27618;SDS011;15039;50.830;4.730;2022-09-24T00:06:40;11.48;;;10.23;;
27618;SDS011;15039;50.830;4.730;2022-09-24T00:09:08;13.10;;;10.60;;
27618;SDS011;15039;50.830;4.730;2022-09-24T00:11:39;12.45;;;11.15;;
27618;SDS011;15039;50.830;4.730;2022-09-24T00:14:07;12.35;;;10.32;;
27618;SDS011;15039;50.830;4.730;2022-09-24T00:16:32;12.50;;;10.73;;
27618;SDS011;15039;50.830;4.730;2022-09-24T00:18:59;11.63;;;10.02;;
27618;SDS011;15039;50.830;4.730;2022-09-24T00:21:28;12.95;;;9.55;;
27618;SDS011;15039;50.830;4.730;2022-09-24T00:23:59;10.20;;;9.05;;
27618;SDS011;15039;50.830;4.730;2022-09-24T00:26:26;11.45;;;9.27;;
27618;SDS011;15039;50.830;4.730;2022-09-24T00:29:12;13.85;;;9.55;;
27618;SDS011;15039;50.830;4.730;2022-09-24T00:31:44;11.10;;;8.20;;
27618;SDS011;15039;50.830;4.730;2022-09-24T00:34:10;8.98;;;7.55;;
27618;SDS011;15039;50.830;4.730;2022-09-24T00:36:37;8.43;;;7.45;;
27618;SDS011;15039;50.830;4.730;2022-09-24T00:39:03;6.95;;;6.10;;
27618;SDS011;15039;50.830;4.730;2022-09-24T00:41:30;10.15;;;6.30;;
27618;SDS011;15039;50.830;4.730;2022-09-24T00:43:58;6.75;;;6.10;;
27618;SDS011;15039;50.830;4.730;2022-09-24T00:46:25;7.45;;;6.75;;
27618;SDS011;15039;50.830;4.730;2022-09-24T00:49:01;8.65;;;6.38;;
27618;SDS011;15039;50.830;4.730;2022-09-24T00:51:34;7.50;;;6.45;;
27618;SDS011;15039;50.830;4.730;2022-09-24T00:54:00;9.25;;;7.97;;
27618;SDS011;15039;50.830;4.730;2022-09-24T00:56:34;8.85;;;7.95;;
27618;SDS011;15039;50.830;4.730;2022-09-24T00:59:03;9.63;;;8.65;;
27618;SDS011;15039;50.830;4.730;2022-09-24T01:01:32;10.35;;;8.52;;
27618;SDS011;15039;50.830;4.730;2022-09-24T01:03:58;12.07;;;9.70;;
27618;SDS011;15039;50.830;4.730;2022-09-24T01:06:25;11.63;;;8.50;;
27618;SDS011;15039;50.830;4.730;2022-09-24T01:08:51;11.43;;;9.63;;
27618;SDS011;15039;50.830;4.730;2022-09-24T01:11:27;11.15;;;9.45;;
27618;SDS011;15039;50.830;4.730;2022-09-24T01:28:07;11.90;;;9.82;;
27618;SDS011;15039;50.830;4.730;2022-09-24T01:30:46;13.13;;;10.05;;
27618;SDS011;15039;50.830;4.730;2022-09-24T01:33:19;15.23;;;9.70;;
27618;SDS011;15039;50.830;4.730;2022-09-24T01:35:50;12.73;;;9.80;;
27618;SDS011;15039;50.830;4.730;2022-09-24T01:38:23;11.30;;;9.38;;
27618;SDS011;15039;50.830;4.730;2022-09-24T01:40:52;10.13;;;9.02;;
27618;SDS011;15039;50.830;4.730;2022-09-24T01:43:23;11.30;;;9.45;;
27618;SDS011;15039;50.830;4.730;2022-09-24T01:45:51;11.73;;;9.27;;
27618;SDS011;15039;50.830;4.730;2022-09-24T01:48:26;12.52;;;10.00;;
27618;SDS011;15039;50.830;4.730;2022-09-24T01:51:17;10.75;;;9.00;;
27618;SDS011;15039;50.830;4.730;2022-09-24T01:56:27;12.80;;;9.43;;
27618;SDS011;15039;50.830;4.730;2022-09-24T02:01:35;10.90;;;9.35;;
27618;SDS011;15039;50.830;4.730;2022-09-24T02:04:08;11.85;;;9.63;;
27618;SDS011;15039;50.830;4.730;2022-09-24T02:06:45;11.63;;;10.00;;
27618;SDS011;15039;50.830;4.730;2022-09-24T02:09:32;12.07;;;10.57;;
27618;SDS011;15039;50.830;4.730;2022-09-24T02:12:05;12.20;;;10.02;;
27618;SDS011;15039;50.830;4.730;2022-09-24T02:14:43;14.57;;;10.05;;
27618;SDS011;15039;50.830;4.730;2022-09-24T02:17:18;14.10;;;9.90;;
27618;SDS011;15039;50.830;4.730;2022-09-24T02:19:47;13.77;;;10.43;;
27618;SDS011;15039;50.830;4.730;2022-09-24T02:22:14;11.98;;;10.60;;
27618;SDS011;15039;50.830;4.730;2022-09-24T02:24:48;12.68;;;10.93;;
27618;SDS011;15039;50.830;4.730;2022-09-24T02:27:17;14.82;;;10.57;;
27618;SDS011;15039;50.830;4.730;2022-09-24T02:29:43;12.30;;;10.85;;
27618;SDS011;15039;50.830;4.730;2022-09-24T02:32:10;14.25;;;10.52;;
27618;SDS011;15039;50.830;4.730;2022-09-24T02:34:40;12.13;;;10.50;;
27618;SDS011;15039;50.830;4.730;2022-09-24T02:37:11;15.57;;;11.25;;
27618;SDS011;15039;50.830;4.730;2022-09-24T02:39:39;12.73;;;10.70;;
27618;SDS011;15039;50.830;4.730;2022-09-24T02:42:05;14.70;;;11.32;;
27618;SDS011;15039;50.830;4.730;2022-09-24T02:44:33;15.18;;;11.32;;
27618;SDS011;15039;50.830;4.730;2022-09-24T02:47:02;15.93;;;12.38;;
27618;SDS011;15039;50.830;4.730;2022-09-24T02:49:28;13.82;;;11.93;;
27618;SDS011;15039;50.830;4.730;2022-09-24T02:51:54;14.90;;;11.48;;
27618;SDS011;15039;50.830;4.730;2022-09-24T02:54:21;15.65;;;12.48;;
27618;SDS011;15039;50.830;4.730;2022-09-24T02:56:47;14.20;;;12.13;;
27618;SDS011;15039;50.830;4.730;2022-09-24T02:59:12;13.77;;;11.98;;
27618;SDS011;15039;50.830;4.730;2022-09-24T03:01:38;14.32;;;11.93;;
27618;SDS011;15039;50.830;4.730;2022-09-24T03:04:04;16.10;;;11.40;;
27618;SDS011;15039;50.830;4.730;2022-09-24T03:06:30;15.07;;;12.65;;
27618;SDS011;15039;50.830;4.730;2022-09-24T03:08:56;19.90;;;12.00;;
27618;SDS011;15039;50.830;4.730;2022-09-24T03:11:22;14.50;;;11.73;;
27618;SDS011;15039;50.830;4.730;2022-09-24T03:13:48;14.25;;;11.43;;
27618;SDS011;15039;50.830;4.730;2022-09-24T03:16:14;15.13;;;11.90;;
27618;SDS011;15039;50.830;4.730;2022-09-24T03:18:41;14.18;;;12.00;;
27618;SDS011;15039;50.830;4.730;2022-09-24T03:21:07;15.88;;;12.10;;
27618;SDS011;15039;50.830;4.730;2022-09-24T03:23:35;16.05;;;12.95;;
27618;SDS011;15039;50.830;4.730;2022-09-24T03:26:01;14.20;;;12.00;;
27618;SDS011;15039;50.830;4.730;2022-09-24T03:28:27;14.50;;;12.27;;
27618;SDS011;15039;50.830;4.730;2022-09-24T03:30:53;17.50;;;12.02;;
27618;SDS011;15039;50.830;4.730;2022-09-24T03:33:25;16.48;;;13.05;;
27618;SDS011;15039;50.830;4.730;2022-09-24T03:35:56;15.30;;;12.60;;
27618;SDS011;15039;50.830;4.730;2022-09-24T03:38:23;15.27;;;12.07;;
27618;SDS011;15039;50.830;4.730;2022-09-24T03:40:49;19.58;;;13.13;;
27618;SDS011;15039;50.830;4.730;2022-09-24T03:43:15;16.40;;;12.88;;
27618;SDS011;15039;50.830;4.730;2022-09-24T03:45:40;17.20;;;13.48;;
27618;SDS011;15039;50.830;4.730;2022-09-24T03:48:06;15.68;;;12.52;;
27618;SDS011;15039;50.830;4.730;2022-09-24T03:50:35;15.18;;;12.82;;
27618;SDS011;15039;50.830;4.730;2022-09-24T03:53:01;18.08;;;12.90;;
27618;SDS011;15039;50.830;4.730;2022-09-24T03:55:26;16.77;;;12.48;;
27618;SDS011;15039;50.830;4.730;2022-09-24T03:57:52;17.70;;;12.38;;
27618;SDS011;15039;50.830;4.730;2022-09-24T04:00:18;16.15;;;12.88;;
27618;SDS011;15039;50.830;4.730;2022-09-24T04:02:43;19.42;;;13.23;;
27618;SDS011;15039;50.830;4.730;2022-09-24T04:05:09;16.15;;;13.05;;
27618;SDS011;15039;50.830;4.730;2022-09-24T04:07:34;14.80;;;12.18;;
27618;SDS011;15039;50.830;4.730;2022-09-24T04:10:00;17.90;;;12.85;;
27618;SDS011;15039;50.830;4.730;2022-09-24T04:12:26;16.85;;;13.20;;
27618;SDS011;15039;50.830;4.730;2022-09-24T04:14:52;16.92;;;12.73;;
27618;SDS011;15039;50.830;4.730;2022-09-24T04:17:17;15.48;;;12.65;;
27618;SDS011;15039;50.830;4.730;2022-09-24T04:19:43;15.88;;;13.45;;
27618;SDS011;15039;50.830;4.730;2022-09-24T04:22:09;18.42;;;13.05;;
27618;SDS011;15039;50.830;4.730;2022-09-24T04:24:35;18.67;;;12.93;;
27618;SDS011;15039;50.830;4.730;2022-09-24T04:27:01;17.40;;;13.82;;
27618;SDS011;15039;50.830;4.730;2022-09-24T04:29:27;15.20;;;13.15;;
27618;SDS011;15039;50.830;4.730;2022-09-24T04:31:52;21.33;;;13.57;;
27618;SDS011;15039;50.830;4.730;2022-09-24T04:34:18;15.57;;;13.25;;
27618;SDS011;15039;50.830;4.730;2022-09-24T04:36:44;18.23;;;14.40;;
27618;SDS011;15039;50.830;4.730;2022-09-24T04:39:10;18.70;;;13.38;;
27618;SDS011;15039;50.830;4.730;2022-09-24T04:41:36;18.27;;;14.02;;
27618;SDS011;15039;50.830;4.730;2022-09-24T04:44:02;17.25;;;13.82;;
27618;SDS011;15039;50.830;4.730;2022-09-24T04:46:29;20.08;;;15.43;;
27618;SDS011;15039;50.830;4.730;2022-09-24T04:48:58;20.05;;;15.18;;
27618;SDS011;15039;50.830;4.730;2022-09-24T04:51:24;23.25;;;16.33;;
27618;SDS011;15039;50.830;4.730;2022-09-24T04:53:49;24.65;;;16.63;;
27618;SDS011;15039;50.830;4.730;2022-09-24T04:56:15;23.55;;;16.25;;
27618;SDS011;15039;50.830;4.730;2022-09-24T04:58:41;23.02;;;16.23;;
27618;SDS011;15039;50.830;4.730;2022-09-24T05:01:06;21.70;;;16.25;;
27618;SDS011;15039;50.830;4.730;2022-09-24T05:03:32;24.45;;;15.73;;
27618;SDS011;15039;50.830;4.730;2022-09-24T05:05:58;20.33;;;15.73;;
27618;SDS011;15039;50.830;4.730;2022-09-24T05:08:24;24.40;;;15.70;;
27618;SDS011;15039;50.830;4.730;2022-09-24T05:10:49;21.63;;;15.63;;
27618;SDS011;15039;50.830;4.730;2022-09-24T05:13:18;23.35;;;16.15;;
27618;SDS011;15039;50.830;4.730;2022-09-24T05:15:44;23.27;;;16.75;;
27618;SDS011;15039;50.830;4.730;2022-09-24T05:18:09;22.90;;;16.20;;
27618;SDS011;15039;50.830;4.730;2022-09-24T05:20:35;24.83;;;16.27;;
27618;SDS011;15039;50.830;4.730;2022-09-24T05:23:01;24.88;;;17.25;;
27618;SDS011;15039;50.830;4.730;2022-09-24T05:25:26;22.25;;;16.27;;
27618;SDS011;15039;50.830;4.730;2022-09-24T05:27:52;23.17;;;16.20;;
27618;SDS011;15039;50.830;4.730;2022-09-24T05:30:20;25.70;;;16.90;;
27618;SDS011;15039;50.830;4.730;2022-09-24T05:32:46;24.80;;;16.35;;
27618;SDS011;15039;50.830;4.730;2022-09-24T05:35:16;26.10;;;17.15;;
27618;SDS011;15039;50.830;4.730;2022-09-24T05:37:42;28.35;;;16.35;;
27618;SDS011;15039;50.830;4.730;2022-09-24T05:40:09;25.20;;;16.00;;
27618;SDS011;15039;50.830;4.730;2022-09-24T05:43:00;25.05;;;16.00;;
27618;SDS011;15039;50.830;4.730;2022-09-24T05:45:27;25.33;;;17.48;;
27618;SDS011;15039;50.830;4.730;2022-09-24T05:47:56;27.60;;;17.02;;
27618;SDS011;15039;50.830;4.730;2022-09-24T05:50:23;30.77;;;18.60;;
27618;SDS011;15039;50.830;4.730;2022-09-24T05:52:49;24.55;;;16.55;;
27618;SDS011;15039;50.830;4.730;2022-09-24T05:55:15;28.27;;;16.58;;
27618;SDS011;15039;50.830;4.730;2022-09-24T05:57:41;30.92;;;17.33;;
27618;SDS011;15039;50.830;4.730;2022-09-24T06:00:07;27.23;;;16.17;;
27618;SDS011;15039;50.830;4.730;2022-09-24T06:02:33;26.27;;;16.38;;
27618;SDS011;15039;50.830;4.730;2022-09-24T06:04:58;26.77;;;17.75;;
27618;SDS011;15039;50.830;4.730;2022-09-24T06:07:24;28.77;;;16.75;;
27618;SDS011;15039;50.830;4.730;2022-09-24T06:09:49;28.88;;;17.00;;
27618;SDS011;15039;50.830;4.730;2022-09-24T06:12:16;27.75;;;16.77;;
27618;SDS011;15039;50.830;4.730;2022-09-24T06:14:42;26.52;;;17.05;;
27618;SDS011;15039;50.830;4.730;2022-09-24T06:17:08;25.17;;;15.75;;
27618;SDS011;15039;50.830;4.730;2022-09-24T06:19:34;26.02;;;17.05;;
27618;SDS011;15039;50.830;4.730;2022-09-24T06:22:00;28.70;;;17.33;;
27618;SDS011;15039;50.830;4.730;2022-09-24T06:24:25;25.17;;;15.88;;
27618;SDS011;15039;50.830;4.730;2022-09-24T06:26:51;30.35;;;16.63;;
27618;SDS011;15039;50.830;4.730;2022-09-24T06:29:17;27.20;;;16.30;;
27618;SDS011;15039;50.830;4.730;2022-09-24T06:31:42;28.27;;;16.13;;
27618;SDS011;15039;50.830;4.730;2022-09-24T06:34:09;26.10;;;15.23;;
27618;SDS011;15039;50.830;4.730;2022-09-24T06:36:35;31.60;;;16.98;;
27618;SDS011;15039;50.830;4.730;2022-09-24T06:39:01;26.88;;;15.63;;
27618;SDS011;15039;50.830;4.730;2022-09-24T06:41:27;25.50;;;16.15;;
27618;SDS011;15039;50.830;4.730;2022-09-24T06:43:53;23.13;;;15.23;;
27618;SDS011;15039;50.830;4.730;2022-09-24T06:46:19;29.15;;;16.65;;
27618;SDS011;15039;50.830;4.730;2022-09-24T06:48:47;26.00;;;15.68;;
27618;SDS011;15039;50.830;4.730;2022-09-24T06:51:13;27.35;;;16.75;;
27618;SDS011;15039;50.830;4.730;2022-09-24T06:53:39;25.17;;;15.45;;
27618;SDS011;15039;50.830;4.730;2022-09-24T06:56:05;28.40;;;16.58;;
27618;SDS011;15039;50.830;4.730;2022-09-24T06:58:31;25.80;;;16.88;;
27618;SDS011;15039;50.830;4.730;2022-09-24T07:00:58;29.52;;;17.45;;
27618;SDS011;15039;50.830;4.730;2022-09-24T07:03:27;27.40;;;17.30;;
27618;SDS011;15039;50.830;4.730;2022-09-24T07:05:53;27.42;;;16.52;;
27618;SDS011;15039;50.830;4.730;2022-09-24T07:08:20;23.98;;;15.18;;
27618;SDS011;15039;50.830;4.730;2022-09-24T07:10:46;26.73;;;15.52;;
27618;SDS011;15039;50.830;4.730;2022-09-24T07:13:13;24.58;;;15.52;;
27618;SDS011;15039;50.830;4.730;2022-09-24T07:15:40;27.33;;;17.20;;
27618;SDS011;15039;50.830;4.730;2022-09-24T07:18:06;24.02;;;15.57;;
27618;SDS011;15039;50.830;4.730;2022-09-24T07:20:33;24.67;;;15.27;;
27618;SDS011;15039;50.830;4.730;2022-09-24T07:23:00;25.73;;;16.75;;
27618;SDS011;15039;50.830;4.730;2022-09-24T07:25:25;25.17;;;15.55;;
27618;SDS011;15039;50.830;4.730;2022-09-24T07:27:51;24.20;;;16.25;;
27618;SDS011;15039;50.830;4.730;2022-09-24T07:30:17;23.75;;;15.55;;
27618;SDS011;15039;50.830;4.730;2022-09-24T07:32:42;24.73;;;15.95;;
27618;SDS011;15039;50.830;4.730;2022-09-24T07:35:08;28.98;;;16.27;;
27618;SDS011;15039;50.830;4.730;2022-09-24T07:37:34;24.52;;;15.23;;
27618;SDS011;15039;50.830;4.730;2022-09-24T07:39:59;25.63;;;16.00;;
27618;SDS011;15039;50.830;4.730;2022-09-24T07:42:25;23.52;;;15.02;;
27618;SDS011;15039;50.830;4.730;2022-09-24T07:44:53;24.45;;;16.17;;
27618;SDS011;15039;50.830;4.730;2022-09-24T07:47:20;22.73;;;15.75;;
27618;SDS011;15039;50.830;4.730;2022-09-24T07:49:46;22.15;;;15.55;;
27618;SDS011;15039;50.830;4.730;2022-09-24T07:52:12;21.33;;;14.95;;
27618;SDS011;15039;50.830;4.730;2022-09-24T07:54:38;21.70;;;14.88;;
27618;SDS011;15039;50.830;4.730;2022-09-24T07:57:08;25.02;;;15.27;;
27618;SDS011;15039;50.830;4.730;2022-09-24T07:59:37;22.98;;;14.63;;
27618;SDS011;15039;50.830;4.730;2022-09-24T08:02:02;21.10;;;15.05;;
27618;SDS011;15039;50.830;4.730;2022-09-24T08:04:31;21.42;;;15.07;;
27618;SDS011;15039;50.830;4.730;2022-09-24T08:06:57;23.73;;;14.95;;
27618;SDS011;15039;50.830;4.730;2022-09-24T08:09:22;21.73;;;14.35;;
27618;SDS011;15039;50.830;4.730;2022-09-24T08:11:48;21.00;;;15.00;;
27618;SDS011;15039;50.830;4.730;2022-09-24T08:14:14;21.25;;;14.75;;
27618;SDS011;15039;50.830;4.730;2022-09-24T08:16:39;18.70;;;13.65;;
27618;SDS011;15039;50.830;4.730;2022-09-24T08:19:05;21.63;;;14.73;;
27618;SDS011;15039;50.830;4.730;2022-09-24T08:21:37;21.00;;;13.93;;
27618;SDS011;15039;50.830;4.730;2022-09-24T08:24:03;22.63;;;14.05;;
27618;SDS011;15039;50.830;4.730;2022-09-24T08:26:28;18.40;;;13.27;;
27618;SDS011;15039;50.830;4.730;2022-09-24T08:28:54;18.27;;;13.73;;
27618;SDS011;15039;50.830;4.730;2022-09-24T08:31:20;19.65;;;12.90;;
27618;SDS011;15039;50.830;4.730;2022-09-24T08:33:46;16.13;;;12.27;;
27618;SDS011;15039;50.830;4.730;2022-09-24T08:36:15;17.00;;;12.85;;
27618;SDS011;15039;50.830;4.730;2022-09-24T08:38:42;17.55;;;12.45;;
27618;SDS011;15039;50.830;4.730;2022-09-24T08:46:17;17.95;;;11.73;;
27618;SDS011;15039;50.830;4.730;2022-09-24T08:49:06;16.00;;;11.57;;
27618;SDS011;15039;50.830;4.730;2022-09-24T08:51:40;16.30;;;12.00;;
27618;SDS011;15039;50.830;4.730;2022-09-24T08:54:24;17.38;;;11.45;;
27618;SDS011;15039;50.830;4.730;2022-09-24T08:56:53;19.13;;;12.18;;
27618;SDS011;15039;50.830;4.730;2022-09-24T08:59:27;17.40;;;11.80;;
27618;SDS011;15039;50.830;4.730;2022-09-24T09:09:45;19.55;;;11.82;;
27618;SDS011;15039;50.830;4.730;2022-09-24T09:12:34;20.52;;;12.48;;
27618;SDS011;15039;50.830;4.730;2022-09-24T09:15:14;16.48;;;11.48;;
27618;SDS011;15039;50.830;4.730;2022-09-24T09:17:48;17.50;;;11.95;;
27618;SDS011;15039;50.830;4.730;2022-09-24T09:20:26;14.65;;;11.20;;
27618;SDS011;15039;50.830;4.730;2022-09-24T09:23:30;16.15;;;11.05;;
27618;SDS011;15039;50.830;4.730;2022-09-24T09:25:58;15.48;;;11.27;;
27618;SDS011;15039;50.830;4.730;2022-09-24T09:28:25;15.50;;;10.73;;
27618;SDS011;15039;50.830;4.730;2022-09-24T09:31:10;15.38;;;10.57;;
27618;SDS011;15039;50.830;4.730;2022-09-24T09:44:51;14.32;;;9.32;;
27618;SDS011;15039;50.830;4.730;2022-09-24T09:47:52;14.25;;;9.50;;
27618;SDS011;15039;50.830;4.730;2022-09-24T09:50:27;15.23;;;9.23;;
27618;SDS011;15039;50.830;4.730;2022-09-24T09:52:55;13.35;;;9.10;;
27618;SDS011;15039;50.830;4.730;2022-09-24T09:55:25;12.32;;;8.52;;
27618;SDS011;15039;50.830;4.730;2022-09-24T09:58:07;15.93;;;9.43;;
27618;SDS011;15039;50.830;4.730;2022-09-24T10:00:40;12.50;;;9.60;;
27618;SDS011;15039;50.830;4.730;2022-09-24T10:03:19;11.52;;;8.65;;
27618;SDS011;15039;50.830;4.730;2022-09-24T10:05:55;11.93;;;9.45;;
27618;SDS011;15039;50.830;4.730;2022-09-24T10:08:29;12.57;;;9.07;;
27618;SDS011;15039;50.830;4.730;2022-09-24T10:10:56;11.73;;;8.60;;
27618;SDS011;15039;50.830;4.730;2022-09-24T10:13:23;11.07;;;8.80;;
27618;SDS011;15039;50.830;4.730;2022-09-24T10:15:50;13.27;;;8.30;;
27618;SDS011;15039;50.830;4.730;2022-09-24T10:18:26;12.63;;;7.50;;
27618;SDS011;15039;50.830;4.730;2022-09-24T10:20:54;12.63;;;8.02;;
27618;SDS011;15039;50.830;4.730;2022-09-24T10:23:25;9.52;;;7.30;;
27618;SDS011;15039;50.830;4.730;2022-09-24T10:26:13;12.15;;;7.70;;
27618;SDS011;15039;50.830;4.730;2022-09-24T10:28:46;10.10;;;7.40;;
27618;SDS011;15039;50.830;4.730;2022-09-24T10:31:46;15.73;;;8.40;;
27618;SDS011;15039;50.830;4.730;2022-09-24T10:34:26;11.43;;;8.50;;
27618;SDS011;15039;50.830;4.730;2022-09-24T10:39:26;13.45;;;8.95;;
27618;SDS011;15039;50.830;4.730;2022-09-24T10:41:55;13.65;;;9.10;;
27618;SDS011;15039;50.830;4.730;2022-09-24T10:44:22;17.98;;;10.20;;
27618;SDS011;15039;50.830;4.730;2022-09-24T10:55:07;16.42;;;11.65;;
27618;SDS011;15039;50.830;4.730;2022-09-24T10:57:48;20.90;;;12.13;;
27618;SDS011;15039;50.830;4.730;2022-09-24T11:06:00;19.98;;;12.43;;
27618;SDS011;15039;50.830;4.730;2022-09-24T11:11:33;20.20;;;12.43;;
27618;SDS011;15039;50.830;4.730;2022-09-24T11:22:21;18.48;;;12.02;;
27618;SDS011;15039;50.830;4.730;2022-09-24T11:30:45;15.85;;;9.35;;
27618;SDS011;15039;50.830;4.730;2022-09-24T11:38:39;12.32;;;8.80;;
27618;SDS011;15039;50.830;4.730;2022-09-24T11:52:49;11.30;;;7.68;;
27618;SDS011;15039;50.830;4.730;2022-09-24T11:55:22;12.15;;;8.13;;
27618;SDS011;15039;50.830;4.730;2022-09-24T12:00:25;10.45;;;7.20;;
27618;SDS011;15039;50.830;4.730;2022-09-24T12:06:04;13.43;;;8.68;;
27618;SDS011;15039;50.830;4.730;2022-09-24T12:11:41;11.18;;;8.30;;
27618;SDS011;15039;50.830;4.730;2022-09-24T12:14:20;14.25;;;9.77;;
27618;SDS011;15039;50.830;4.730;2022-09-24T12:16:53;14.88;;;9.25;;
27618;SDS011;15039;50.830;4.730;2022-09-24T12:19:26;12.63;;;8.50;;
27618;SDS011;15039;50.830;4.730;2022-09-24T12:21:55;15.65;;;9.43;;
27618;SDS011;15039;50.830;4.730;2022-09-24T12:27:11;13.52;;;8.88;;
27618;SDS011;15039;50.830;4.730;2022-09-24T12:29:49;12.30;;;8.88;;
27618;SDS011;15039;50.830;4.730;2022-09-24T12:32:57;12.93;;;8.80;;
27618;SDS011;15039;50.830;4.730;2022-09-24T12:35:42;12.27;;;8.57;;
27618;SDS011;15039;50.830;4.730;2022-09-24T12:38:21;12.68;;;8.43;;
27618;SDS011;15039;50.830;4.730;2022-09-24T12:43:50;9.98;;;6.70;;
27618;SDS011;15039;50.830;4.730;2022-09-24T12:46:40;7.85;;;6.60;;
27618;SDS011;15039;50.830;4.730;2022-09-24T12:51:49;9.38;;;6.55;;
27618;SDS011;15039;50.830;4.730;2022-09-24T12:54:36;9.07;;;6.20;;
27618;SDS011;15039;50.830;4.730;2022-09-24T12:57:06;9.93;;;5.82;;
27618;SDS011;15039;50.830;4.730;2022-09-24T13:02:27;8.77;;;5.82;;
27618;SDS011;15039;50.830;4.730;2022-09-24T13:07:33;9.95;;;6.25;;
27618;SDS011;15039;50.830;4.730;2022-09-24T13:10:24;7.68;;;5.32;;
27618;SDS011;15039;50.830;4.730;2022-09-24T13:12:57;8.45;;;5.18;;
27618;SDS011;15039;50.830;4.730;2022-09-24T13:15:40;6.45;;;5.15;;
27618;SDS011;15039;50.830;4.730;2022-09-24T13:20:38;5.97;;;5.00;;
27618;SDS011;15039;50.830;4.730;2022-09-24T13:26:03;6.05;;;5.43;;
27618;SDS011;15039;50.830;4.730;2022-09-24T13:34:17;5.90;;;5.30;;
27618;SDS011;15039;50.830;4.730;2022-09-24T13:44:57;6.85;;;5.88;;
27618;SDS011;15039;50.830;4.730;2022-09-24T13:49:55;5.82;;;5.13;;
27618;SDS011;15039;50.830;4.730;2022-09-24T13:52:45;5.78;;;5.18;;
27618;SDS011;15039;50.830;4.730;2022-09-24T13:55:26;8.32;;;5.75;;
27618;SDS011;15039;50.830;4.730;2022-09-24T13:57:56;7.18;;;5.85;;
27618;SDS011;15039;50.830;4.730;2022-09-24T14:00:22;7.32;;;5.80;;
27618;SDS011;15039;50.830;4.730;2022-09-24T14:05:38;6.85;;;5.07;;
27618;SDS011;15039;50.830;4.730;2022-09-24T14:08:06;6.97;;;5.35;;
27618;SDS011;15039;50.830;4.730;2022-09-24T14:10:35;6.80;;;5.78;;
27618;SDS011;15039;50.830;4.730;2022-09-24T14:13:04;7.57;;;6.25;;
27618;SDS011;15039;50.830;4.730;2022-09-24T14:15:56;8.02;;;5.85;;
27618;SDS011;15039;50.830;4.730;2022-09-24T14:18:32;10.50;;;6.70;;
27618;SDS011;15039;50.830;4.730;2022-09-24T14:23:53;7.03;;;6.10;;
27618;SDS011;15039;50.830;4.730;2022-09-24T14:26:25;6.82;;;6.13;;
27618;SDS011;15039;50.830;4.730;2022-09-24T14:28:59;9.35;;;6.13;;
27618;SDS011;15039;50.830;4.730;2022-09-24T14:31:29;9.20;;;6.28;;
27618;SDS011;15039;50.830;4.730;2022-09-24T14:33:54;7.68;;;6.20;;
27618;SDS011;15039;50.830;4.730;2022-09-24T14:36:21;7.47;;;5.72;;
27618;SDS011;15039;50.830;4.730;2022-09-24T14:38:57;7.03;;;5.75;;
27618;SDS011;15039;50.830;4.730;2022-09-24T14:41:29;8.23;;;5.43;;
27618;SDS011;15039;50.830;4.730;2022-09-24T14:43:59;10.13;;;6.18;;
27618;SDS011;15039;50.830;4.730;2022-09-24T14:46:43;6.72;;;6.03;;
27618;SDS011;15039;50.830;4.730;2022-09-24T14:51:57;6.82;;;6.15;;
27618;SDS011;15039;50.830;4.730;2022-09-24T14:57:23;7.75;;;6.18;;
27618;SDS011;15039;50.830;4.730;2022-09-24T14:59:49;9.57;;;6.50;;
27618;SDS011;15039;50.830;4.730;2022-09-24T15:04:57;6.78;;;5.75;;
27618;SDS011;15039;50.830;4.730;2022-09-24T15:07:26;7.60;;;5.65;;
27618;SDS011;15039;50.830;4.730;2022-09-24T15:09:54;6.63;;;5.35;;
27618;SDS011;15039;50.830;4.730;2022-09-24T15:17:30;5.40;;;4.90;;
27618;SDS011;15039;50.830;4.730;2022-09-24T15:19:58;5.97;;;5.18;;
27618;SDS011;15039;50.830;4.730;2022-09-24T15:22:25;6.70;;;4.93;;
27618;SDS011;15039;50.830;4.730;2022-09-24T15:24:52;4.55;;;3.90;;
27618;SDS011;15039;50.830;4.730;2022-09-24T15:29:55;5.38;;;4.72;;
27618;SDS011;15039;50.830;4.730;2022-09-24T15:32:24;6.53;;;5.07;;
27618;SDS011;15039;50.830;4.730;2022-09-24T15:34:51;7.00;;;4.80;;
27618;SDS011;15039;50.830;4.730;2022-09-24T15:37:18;5.10;;;4.60;;
27618;SDS011;15039;50.830;4.730;2022-09-24T15:39:46;4.65;;;4.13;;
27618;SDS011;15039;50.830;4.730;2022-09-24T15:42:20;6.00;;;5.40;;
27618;SDS011;15039;50.830;4.730;2022-09-24T15:44:48;7.63;;;5.10;;
27618;SDS011;15039;50.830;4.730;2022-09-24T15:47:17;6.18;;;5.60;;
27618;SDS011;15039;50.830;4.730;2022-09-24T15:49:43;5.47;;;4.82;;
27618;SDS011;15039;50.830;4.730;2022-09-24T15:52:13;5.85;;;5.20;;
27618;SDS011;15039;50.830;4.730;2022-09-24T15:54:40;5.88;;;5.15;;
27618;SDS011;15039;50.830;4.730;2022-09-24T15:57:06;5.30;;;4.80;;
27618;SDS011;15039;50.830;4.730;2022-09-24T15:59:35;5.40;;;4.90;;
27618;SDS011;15039;50.830;4.730;2022-09-24T16:02:02;6.85;;;5.47;;
27618;SDS011;15039;50.830;4.730;2022-09-24T16:04:37;6.13;;;5.53;;
27618;SDS011;15039;50.830;4.730;2022-09-24T16:07:02;7.82;;;6.15;;
27618;SDS011;15039;50.830;4.730;2022-09-24T16:09:28;8.20;;;5.85;;
27618;SDS011;15039;50.830;4.730;2022-09-24T16:11:54;7.88;;;6.32;;
27618;SDS011;15039;50.830;4.730;2022-09-24T16:14:21;8.80;;;5.80;;
27618;SDS011;15039;50.830;4.730;2022-09-24T16:16:48;6.95;;;5.78;;
27618;SDS011;15039;50.830;4.730;2022-09-24T16:19:14;6.13;;;5.50;;
27618;SDS011;15039;50.830;4.730;2022-09-24T16:21:39;5.80;;;5.25;;
27618;SDS011;15039;50.830;4.730;2022-09-24T16:24:05;8.48;;;5.43;;
27618;SDS011;15039;50.830;4.730;2022-09-24T16:26:31;6.32;;;5.55;;
27618;SDS011;15039;50.830;4.730;2022-09-24T16:29:00;7.03;;;5.38;;
27618;SDS011;15039;50.830;4.730;2022-09-24T16:31:26;5.97;;;5.38;;
27618;SDS011;15039;50.830;4.730;2022-09-24T16:33:51;6.32;;;5.70;;
27618;SDS011;15039;50.830;4.730;2022-09-24T16:36:18;6.40;;;5.00;;
27618;SDS011;15039;50.830;4.730;2022-09-24T16:38:44;6.70;;;6.03;;
27618;SDS011;15039;50.830;4.730;2022-09-24T16:41:10;6.95;;;6.07;;
27618;SDS011;15039;50.830;4.730;2022-09-24T16:43:36;8.48;;;7.10;;
27618;SDS011;15039;50.830;4.730;2022-09-24T16:46:02;9.13;;;6.80;;
27618;SDS011;15039;50.830;4.730;2022-09-24T16:48:30;10.20;;;6.95;;
27618;SDS011;15039;50.830;4.730;2022-09-24T16:51:06;7.47;;;6.57;;
27618;SDS011;15039;50.830;4.730;2022-09-24T16:53:33;10.60;;;6.68;;
27618;SDS011;15039;50.830;4.730;2022-09-24T16:56:06;8.13;;;6.97;;
27618;SDS011;15039;50.830;4.730;2022-09-24T16:58:37;8.00;;;6.80;;
27618;SDS011;15039;50.830;4.730;2022-09-24T17:01:08;7.75;;;6.22;;
27618;SDS011;15039;50.830;4.730;2022-09-24T17:03:36;7.15;;;6.28;;
27618;SDS011;15039;50.830;4.730;2022-09-24T17:06:02;7.40;;;5.85;;
27618;SDS011;15039;50.830;4.730;2022-09-24T17:08:29;8.18;;;7.22;;
27618;SDS011;15039;50.830;4.730;2022-09-24T17:11:14;8.82;;;6.55;;
27618;SDS011;15039;50.830;4.730;2022-09-24T17:13:40;9.35;;;6.82;;
27618;SDS011;15039;50.830;4.730;2022-09-24T17:16:06;7.97;;;7.18;;
27618;SDS011;15039;50.830;4.730;2022-09-24T17:18:32;10.48;;;8.02;;
27618;SDS011;15039;50.830;4.730;2022-09-24T17:20:59;7.72;;;6.93;;
27618;SDS011;15039;50.830;4.730;2022-09-24T17:23:25;8.52;;;7.47;;
27618;SDS011;15039;50.830;4.730;2022-09-24T17:25:59;7.80;;;7.00;;